createdAt,value
2018-04-19T00:01:54.996Z,99.90
2018-04-19T00:04:22.157Z,99.90
2018-04-19T00:06:48.619Z,99.90
2018-04-19T00:09:14.987Z,99.90
2018-04-19T00:11:41.447Z,99.90
2018-04-19T00:14:08.567Z,99.90
2018-04-19T00:16:35.050Z,99.90
2018-04-19T00:19:01.435Z,99.90
2018-04-19T00:21:27.901Z,99.90
2018-04-19T00:23:54.323Z,99.90
2018-04-19T00:26:21.472Z,99.90
2018-04-19T00:28:48.634Z,99.90
2018-04-19T00:31:15.171Z,99.90
2018-04-19T00:33:41.669Z,99.90
2018-04-19T00:36:08.031Z,99.90
2018-04-19T00:38:34.531Z,99.90
2018-04-19T00:41:00.934Z,99.90
2018-04-19T00:43:27.374Z,99.90
2018-04-19T00:45:53.856Z,99.90
2018-04-19T00:48:21.059Z,99.90
2018-04-19T00:50:47.731Z,99.90
2018-04-19T00:53:14.918Z,99.90
2018-04-19T00:55:41.306Z,99.90
2018-04-19T00:58:08.432Z,99.90
2018-04-19T01:00:34.923Z,99.90
2018-04-19T01:03:01.344Z,99.90
2018-04-19T01:05:27.807Z,99.90
2018-04-19T01:07:54.201Z,99.90
2018-04-19T01:10:21.441Z,99.90
2018-04-19T01:12:48.432Z,99.90
2018-04-19T01:15:14.856Z,99.90
2018-04-19T01:17:41.292Z,99.90
2018-04-19T01:20:07.712Z,99.90
2018-04-19T01:22:34.203Z,99.90
2018-04-19T01:25:00.575Z,99.90
2018-04-19T01:27:27.047Z,99.90
2018-04-19T01:29:53.471Z,99.90
2018-04-19T01:32:19.885Z,99.90
2018-04-19T01:34:46.306Z,99.90
2018-04-19T01:37:12.816Z,99.90
2018-04-19T01:39:40.068Z,99.90
2018-04-19T01:42:07.221Z,99.90
2018-04-19T01:44:34.395Z,99.90
2018-04-19T01:47:00.960Z,99.90
2018-04-19T01:49:27.298Z,99.90
2018-04-19T01:51:53.744Z,99.90
2018-04-19T01:54:20.156Z,99.90
2018-04-19T01:56:46.676Z,99.90
2018-04-19T01:59:13.079Z,99.90
2018-04-19T02:01:39.603Z,99.90
2018-04-19T02:04:06.768Z,99.90
2018-04-19T02:06:33.164Z,99.90
2018-04-19T02:08:59.629Z,99.90
2018-04-19T02:11:26.056Z,99.90
2018-04-19T02:13:52.500Z,99.90
2018-04-19T02:16:18.904Z,99.90
2018-04-19T02:18:46.068Z,99.90
2018-04-19T02:21:13.203Z,99.90
2018-04-19T02:23:40.360Z,99.90
2018-04-19T02:26:07.594Z,99.90
2018-04-19T02:28:34.001Z,99.90
2018-04-19T02:31:00.547Z,99.90
2018-04-19T02:33:26.945Z,99.90
2018-04-19T02:35:53.459Z,99.90
2018-04-19T02:38:19.833Z,99.90
2018-04-19T02:40:46.488Z,99.90
2018-04-19T02:43:12.858Z,99.90
2018-04-19T02:45:39.419Z,99.90
2018-04-19T02:48:05.848Z,99.90
2018-04-19T02:50:32.316Z,99.90
2018-04-19T02:52:58.712Z,99.90
2018-04-19T02:55:25.197Z,99.90
2018-04-19T02:57:52.464Z,99.90
2018-04-19T03:00:18.865Z,99.90
2018-04-19T03:02:45.428Z,99.90
2018-04-19T03:05:12.611Z,99.90
2018-04-19T03:07:39.020Z,99.90
2018-04-19T03:10:05.420Z,99.90
2018-04-19T03:12:32.640Z,99.90
2018-04-19T03:14:59.715Z,99.90
2018-04-19T03:17:26.236Z,99.90
2018-04-19T03:19:52.640Z,99.90
2018-04-19T03:22:19.127Z,99.90
2018-04-19T03:24:46.250Z,99.90
2018-04-19T03:27:12.656Z,99.90
2018-04-19T03:29:39.243Z,99.90
2018-04-19T03:32:06.363Z,99.90
2018-04-19T03:34:32.792Z,99.90
2018-04-19T03:36:59.195Z,99.90
2018-04-19T03:39:25.620Z,99.90
2018-04-19T03:41:52.041Z,99.90
2018-04-19T03:44:18.468Z,99.90
2018-04-19T03:46:44.891Z,99.90
2018-04-19T03:49:12.072Z,99.90
2018-04-19T03:51:38.520Z,99.90
2018-04-19T03:54:04.925Z,99.90
2018-04-19T03:56:31.335Z,99.90
2018-04-19T03:58:58.515Z,99.90
2018-04-19T04:01:24.933Z,99.90
2018-04-19T04:03:51.338Z,99.90
2018-04-19T04:06:18.564Z,99.90
2018-04-19T04:08:44.997Z,99.90
2018-04-19T04:11:11.395Z,99.90
2018-04-19T04:13:37.812Z,99.90
2018-04-19T04:16:04.263Z,99.90
2018-04-19T04:18:42.861Z,99.90
2018-04-19T04:21:17.392Z,99.90
2018-04-19T04:23:50.776Z,99.90
2018-04-19T04:26:17.280Z,99.90
2018-04-19T04:28:43.708Z,99.90
2018-04-19T04:31:10.252Z,99.90
2018-04-19T04:33:36.686Z,99.90
2018-04-19T04:36:03.842Z,99.90
2018-04-19T04:38:31.004Z,99.90
2018-04-19T04:40:57.427Z,99.90
2018-04-19T04:43:24.597Z,99.90
2018-04-19T04:45:51.072Z,99.90
2018-04-19T04:48:17.475Z,99.90
2018-04-19T04:50:43.992Z,99.90
2018-04-19T04:53:10.420Z,99.90
2018-04-19T04:55:36.884Z,99.90
2018-04-19T04:58:03.316Z,99.90
2018-04-19T05:00:29.819Z,99.90
2018-04-19T05:02:56.258Z,99.90
2018-04-19T05:05:22.877Z,99.90
2018-04-19T05:07:50.055Z,99.90
2018-04-19T05:10:16.556Z,99.90
2018-04-19T05:12:43.706Z,99.90
2018-04-19T05:15:11.347Z,99.90
2018-04-19T05:17:37.886Z,99.90
2018-04-19T05:20:04.291Z,99.90
2018-04-19T05:22:30.896Z,99.90
2018-04-19T05:24:57.323Z,99.90
2018-04-19T05:27:23.768Z,99.90
2018-04-19T05:29:50.187Z,99.90
2018-04-19T05:34:50.515Z,99.90
2018-04-19T05:37:17.682Z,99.90
2018-04-19T05:39:44.169Z,99.90
2018-04-19T05:42:10.593Z,99.90
2018-04-19T05:44:37.116Z,99.90
2018-04-19T05:47:03.526Z,99.90
2018-04-19T05:49:30.082Z,99.90
2018-04-19T05:51:56.489Z,99.90
2018-04-19T05:54:23.170Z,99.90
2018-04-19T05:56:49.546Z,99.90
2018-04-19T05:59:15.995Z,99.90
2018-04-19T06:01:42.451Z,99.90
2018-04-19T06:04:08.941Z,99.90
2018-04-19T06:06:35.364Z,99.90
2018-04-19T06:09:02.503Z,99.90
2018-04-19T06:11:29.691Z,99.90
2018-04-19T06:13:56.167Z,99.90
2018-04-19T06:16:22.591Z,99.90
2018-04-19T06:18:49.040Z,99.90
2018-04-19T06:21:15.424Z,99.90
2018-04-19T06:23:41.816Z,99.90
2018-04-19T06:26:08.943Z,99.90
2018-04-19T06:28:35.425Z,99.90
2018-04-19T06:31:01.826Z,99.90
2018-04-19T06:33:28.988Z,99.90
2018-04-19T06:35:55.538Z,99.90
2018-04-19T06:38:22.685Z,99.90
2018-04-19T06:40:49.117Z,99.90
2018-04-19T06:43:15.524Z,99.90
2018-04-19T06:45:42.705Z,99.90
2018-04-19T06:48:09.136Z,99.90
2018-04-19T06:50:35.520Z,99.90
2018-04-19T06:53:02.039Z,99.90
2018-04-19T06:55:28.427Z,99.90
2018-04-19T06:57:54.820Z,99.90
2018-04-19T07:00:21.228Z,99.90
2018-04-19T07:02:47.670Z,99.90
2018-04-19T07:05:14.077Z,99.90
2018-04-19T07:07:40.512Z,99.90
2018-04-19T07:10:06.969Z,99.90
2018-04-19T07:12:33.388Z,99.90
2018-04-19T07:14:59.795Z,99.90
2018-04-19T07:17:26.280Z,99.90
2018-04-19T07:19:52.735Z,99.90
2018-04-19T07:22:19.300Z,99.90
2018-04-19T07:24:45.980Z,99.90
2018-04-19T07:27:12.412Z,99.90
2018-04-19T07:29:38.866Z,99.90
2018-04-19T07:32:06.030Z,99.90
2018-04-19T07:34:33.173Z,99.90
2018-04-19T07:36:59.797Z,99.90
2018-04-19T07:39:26.983Z,99.90
2018-04-19T07:41:53.391Z,99.90
2018-04-19T07:44:20.540Z,99.90
2018-04-19T07:46:47.716Z,99.90
2018-04-19T07:49:14.129Z,99.90
2018-04-19T07:51:40.595Z,99.90
2018-04-19T07:54:07.016Z,99.90
2018-04-19T07:56:33.632Z,99.90
2018-04-19T07:59:00.027Z,99.90
2018-04-19T08:01:26.463Z,99.90
2018-04-19T08:03:52.863Z,99.90
2018-04-19T08:06:19.299Z,99.90
2018-04-19T08:08:45.689Z,99.70
2018-04-19T08:11:12.169Z,98.40
2018-04-19T08:13:38.579Z,99.90
2018-04-19T08:16:05.198Z,98.20
2018-04-19T08:18:31.647Z,99.60
2018-04-19T08:20:58.251Z,97.60
2018-04-19T08:23:25.557Z,97.70
2018-04-19T08:25:52.007Z,97.60
2018-04-19T08:28:18.512Z,95.10
2018-04-19T08:30:44.903Z,96.40
2018-04-19T08:33:12.084Z,93.60
2018-04-19T08:35:38.516Z,93.70
2018-04-19T08:38:04.886Z,93.40
2018-04-19T08:40:31.422Z,91.50
2018-04-19T08:42:57.931Z,93.40
2018-04-19T08:45:24.356Z,92.00
2018-04-19T08:47:52.761Z,91.80
2018-04-19T08:50:19.715Z,90.80
2018-04-19T08:52:46.333Z,91.50
2018-04-19T08:55:12.771Z,91.20
2018-04-19T08:57:39.167Z,89.30
2018-04-19T09:00:05.640Z,90.00
2018-04-19T09:02:32.069Z,87.70
2018-04-19T09:04:58.515Z,88.10
2018-04-19T09:07:25.707Z,86.90
2018-04-19T09:09:52.147Z,86.80
2018-04-19T09:12:18.630Z,88.40
2018-04-19T09:14:45.101Z,90.90
2018-04-19T09:17:11.583Z,83.40
2018-04-19T09:34:18.570Z,83.30
2018-04-19T09:36:45.017Z,83.30
2018-04-19T09:39:12.237Z,83.10
2018-04-19T09:41:38.869Z,83.10
2018-04-19T09:44:05.864Z,80.40
2018-04-19T09:46:32.374Z,81.00
2018-04-19T09:48:59.637Z,73.90
2018-04-19T09:51:26.868Z,74.90
2018-04-19T09:53:53.396Z,75.20
2018-04-19T09:56:19.866Z,75.40
2018-04-19T09:58:59.309Z,76.80
2018-04-19T10:01:25.904Z,77.20
2018-04-19T10:03:52.406Z,75.30
2018-04-19T10:06:18.990Z,70.80
2018-04-19T10:08:46.352Z,70.00
2018-04-19T10:11:13.625Z,68.70
2018-04-19T10:13:40.125Z,68.80
2018-04-19T10:16:06.811Z,76.40
2018-04-19T10:18:33.197Z,70.00
2018-04-19T10:20:59.700Z,77.50
2018-04-19T10:23:26.163Z,71.30
2018-04-19T10:25:53.391Z,64.00
2018-04-19T10:28:20.308Z,64.00
2018-04-19T10:30:46.745Z,68.10
2018-04-19T10:33:13.234Z,66.80
2018-04-19T10:35:39.741Z,63.90
2018-04-19T10:38:06.218Z,71.10
2018-04-19T10:40:33.413Z,67.00
2018-04-19T10:42:59.946Z,67.30
2018-04-19T10:48:22.468Z,65.90
2018-04-19T10:50:48.917Z,65.90
2018-04-19T10:53:15.308Z,67.60
2018-04-19T10:55:42.490Z,68.00
2018-04-19T10:58:08.937Z,67.80
2018-04-19T11:00:35.354Z,69.50
2018-04-19T11:03:01.745Z,71.80
2018-04-19T11:05:28.192Z,67.80
2018-04-19T11:07:55.344Z,66.90
2018-04-19T11:10:22.540Z,68.70
2018-04-19T11:12:48.928Z,68.60
2018-04-19T11:15:16.136Z,62.00
2018-04-19T11:17:42.554Z,62.10
2018-04-19T11:20:09.056Z,62.30
2018-04-19T11:22:35.496Z,62.70
2018-04-19T11:25:02.004Z,66.70
2018-04-19T11:27:29.731Z,62.70
2018-04-19T11:29:56.160Z,62.60
2018-04-19T11:32:22.592Z,62.60
2018-04-19T11:34:49.054Z,62.90
2018-04-19T11:37:16.445Z,61.90
2018-04-19T11:39:42.986Z,61.80
2018-04-19T11:42:09.411Z,59.00
2018-04-19T11:44:35.933Z,65.00
2018-04-19T11:47:02.417Z,60.20
2018-04-19T11:49:28.943Z,62.50
2018-04-19T11:51:55.380Z,60.20
2018-04-19T11:54:21.872Z,72.00
2018-04-19T11:56:49.343Z,61.00
2018-04-19T11:59:15.779Z,60.80
2018-04-19T12:01:42.205Z,59.40
2018-04-19T12:04:08.679Z,58.90
2018-04-19T12:06:35.099Z,59.50
2018-04-19T12:09:01.619Z,65.60
2018-04-19T12:11:28.092Z,57.30
2018-04-19T12:13:54.575Z,56.90
2018-04-19T12:16:20.976Z,59.40
2018-04-19T12:18:48.494Z,57.80
2018-04-19T12:21:14.932Z,57.80
2018-04-19T12:23:41.379Z,57.00
2018-04-19T12:26:07.764Z,59.60
2018-04-19T12:28:34.223Z,57.00
2018-04-19T12:31:00.637Z,55.50
2018-04-19T12:33:27.181Z,57.60
2018-04-19T12:35:53.588Z,55.60
2018-04-19T12:38:20.089Z,56.70
2018-04-19T12:40:47.379Z,54.00
2018-04-19T12:43:13.805Z,54.10
2018-04-19T12:45:40.279Z,51.70
2018-04-19T12:48:06.712Z,52.90
2018-04-19T12:50:33.220Z,51.90
2018-04-19T12:52:59.640Z,49.30
2018-04-19T12:55:26.079Z,47.50
2018-04-19T12:57:52.533Z,46.20
2018-04-19T13:00:19.002Z,48.00
2018-04-19T13:02:46.272Z,47.70
2018-04-19T13:05:12.824Z,47.60
2018-04-19T13:07:39.255Z,45.40
2018-04-19T13:10:05.697Z,44.90
2018-04-19T13:12:32.165Z,45.80
2018-04-19T13:14:58.580Z,49.60
2018-04-19T13:17:25.132Z,48.10
2018-04-19T13:19:51.594Z,47.00
2018-04-19T13:22:18.779Z,41.80
2018-04-19T13:24:45.971Z,41.70
2018-04-19T13:27:12.464Z,43.10
2018-04-19T13:29:38.881Z,42.40
2018-04-19T13:32:05.378Z,42.60
2018-04-19T13:34:31.787Z,40.20
2018-04-19T13:36:58.241Z,42.30
2018-04-19T13:39:25.514Z,40.10
2018-04-19T13:41:52.667Z,42.30
2018-04-19T13:44:19.147Z,42.20
2018-04-19T13:46:45.556Z,40.30
2018-04-19T13:49:11.996Z,41.80
2018-04-19T13:51:39.216Z,43.30
2018-04-19T13:54:05.649Z,41.00
2018-04-19T13:56:32.155Z,42.10
2018-04-19T13:58:58.599Z,41.80
2018-04-19T14:01:25.757Z,39.20
2018-04-19T14:03:52.931Z,37.90
2018-04-19T14:06:19.474Z,37.90
2018-04-19T14:08:45.920Z,38.70
2018-04-19T14:11:12.451Z,40.30
2018-04-19T14:13:38.893Z,38.10
2018-04-19T14:16:05.407Z,39.60
2018-04-19T14:18:31.885Z,39.30
2018-04-19T14:20:58.412Z,42.10
2018-04-19T14:23:24.817Z,41.50
2018-04-19T14:25:56.137Z,40.30
2018-04-19T14:28:22.635Z,38.60
2018-04-19T14:30:49.862Z,36.60
2018-04-19T14:33:16.346Z,36.40
2018-04-19T14:35:42.799Z,36.80
2018-04-19T14:38:09.226Z,36.80
2018-04-19T14:40:35.680Z,38.30
2018-04-19T14:43:02.157Z,38.40
2018-04-19T14:45:29.353Z,37.30
2018-04-19T14:47:55.848Z,37.90
2018-04-19T14:50:23.059Z,37.50
2018-04-19T14:52:49.497Z,37.60
2018-04-19T14:55:15.910Z,39.60
2018-04-19T14:57:42.396Z,36.60
2018-04-19T15:00:09.651Z,37.10
2018-04-19T15:02:36.828Z,36.00
2018-04-19T15:05:03.256Z,35.90
2018-04-19T15:07:29.791Z,36.40
2018-04-19T15:09:56.223Z,35.40
2018-04-19T15:12:22.664Z,34.70
2018-04-19T15:14:49.088Z,35.00
2018-04-19T15:17:15.500Z,36.70
2018-04-19T15:19:42.829Z,34.20
2018-04-19T15:22:09.236Z,34.20
2018-04-19T15:24:35.656Z,34.40
2018-04-19T15:27:02.050Z,36.40
2018-04-19T15:29:29.221Z,35.30
2018-04-19T15:31:55.609Z,35.90
2018-04-19T15:34:22.826Z,36.50
2018-04-19T15:36:49.348Z,35.50
2018-04-19T15:39:15.838Z,34.70
2018-04-19T15:41:43.037Z,35.50
2018-04-19T15:44:09.471Z,35.40
2018-04-19T15:46:35.972Z,35.80
2018-04-19T15:49:03.172Z,35.10
2018-04-19T15:51:29.656Z,35.00
2018-04-19T15:53:56.080Z,34.80
2018-04-19T15:56:23.272Z,36.10
2018-04-19T15:58:50.117Z,36.00
2018-04-19T16:01:16.572Z,36.00
2018-04-19T16:03:43.081Z,35.40
2018-04-19T16:06:09.535Z,35.60
2018-04-19T16:08:36.117Z,37.00
2018-04-19T16:11:02.603Z,36.50
2018-04-19T16:13:29.057Z,38.10
2018-04-19T16:15:55.478Z,34.80
2018-04-19T16:18:21.943Z,37.10
2018-04-19T16:20:50.126Z,36.00
2018-04-19T16:23:16.576Z,35.90
2018-04-19T16:25:43.007Z,35.50
2018-04-19T16:28:09.488Z,36.00
2018-04-19T16:30:35.964Z,36.80
2018-04-19T16:33:02.434Z,37.50
2018-04-19T16:35:29.030Z,36.00
2018-04-19T16:38:02.744Z,36.60
2018-04-19T16:40:29.227Z,37.80
2018-04-19T16:42:55.638Z,37.20
2018-04-19T16:45:22.045Z,37.10
2018-04-19T16:47:48.878Z,38.70
2018-04-19T16:50:15.635Z,39.70
2018-04-19T16:52:42.255Z,39.60
2018-04-19T16:55:08.721Z,40.40
2018-04-19T16:57:35.462Z,39.30
2018-04-19T17:00:01.972Z,40.70
2018-04-19T17:02:29.279Z,41.10
2018-04-19T17:04:56.571Z,42.10
2018-04-19T17:07:23.242Z,42.00
2018-04-19T17:09:49.992Z,42.90
2018-04-19T17:12:16.422Z,42.90
2018-04-19T17:14:42.962Z,42.90
2018-04-19T17:17:09.539Z,43.20
2018-04-19T17:19:35.972Z,44.10
2018-04-19T17:22:02.475Z,43.30
2018-04-19T17:24:29.763Z,42.90
2018-04-19T17:26:56.245Z,42.80
2018-04-19T17:29:22.743Z,43.30
2018-04-19T17:31:49.128Z,44.10
2018-04-19T17:34:16.235Z,44.60
2018-04-19T17:36:43.176Z,44.50
2018-04-19T17:39:09.625Z,45.60
2018-04-19T17:41:36.170Z,46.50
2018-04-19T17:44:02.639Z,47.10
2018-04-19T17:46:29.085Z,47.50
2018-04-19T17:48:55.517Z,48.80
2018-04-19T17:51:22.096Z,49.30
2018-04-19T17:53:48.524Z,49.80
2018-04-19T17:56:14.978Z,50.70
2018-04-19T17:58:41.397Z,51.10
2018-04-19T18:01:07.852Z,51.30
2018-04-19T18:03:35.817Z,51.50
2018-04-19T18:06:03.099Z,52.00
2018-04-19T18:08:29.555Z,51.90
2018-04-19T18:10:57.619Z,52.60
2018-04-19T18:13:24.109Z,52.90
2018-04-19T18:15:51.313Z,53.90
2018-04-19T18:18:17.826Z,53.90
2018-04-19T18:20:44.263Z,54.10
2018-04-19T18:23:10.796Z,54.50
2018-04-19T18:25:37.282Z,55.20
2018-04-19T18:28:03.759Z,56.20
2018-04-19T18:30:30.210Z,57.70
2018-04-19T18:32:56.740Z,58.30
2018-04-19T18:35:23.166Z,58.90
2018-04-19T18:37:50.098Z,59.00
2018-04-19T18:40:16.583Z,60.40
2018-04-19T18:42:43.033Z,61.10
2018-04-19T18:45:10.383Z,62.30
2018-04-19T18:47:37.044Z,62.30
2018-04-19T18:50:03.511Z,65.10
2018-04-19T18:52:29.997Z,67.30
2018-04-19T18:54:57.251Z,70.80
2018-04-19T18:57:23.687Z,70.60
2018-04-19T18:59:50.977Z,82.60
2018-04-19T19:02:17.666Z,82.50
2018-04-19T19:04:44.863Z,93.90
2018-04-19T19:07:11.338Z,93.90
2018-04-19T19:09:37.975Z,98.70
2018-04-19T19:12:04.431Z,99.90
2018-04-19T19:14:33.621Z,99.90
2018-04-19T19:17:13.286Z,99.90
2018-04-19T19:22:43.846Z,99.90
2018-04-19T19:25:10.436Z,99.90
2018-04-19T19:27:36.979Z,99.90
2018-04-19T19:30:04.191Z,99.90
2018-04-19T19:32:30.632Z,99.90
2018-04-19T19:34:57.176Z,99.90
2018-04-19T19:37:23.645Z,99.90
2018-04-19T19:39:50.788Z,99.90
2018-04-19T19:42:18.049Z,99.90
2018-04-19T19:44:44.612Z,99.90
2018-04-19T19:47:11.077Z,99.90
2018-04-19T19:49:37.643Z,99.90
2018-04-19T19:52:05.064Z,99.90
2018-04-19T19:54:31.602Z,99.90
2018-04-19T19:56:58.245Z,99.90
2018-04-19T19:59:25.366Z,99.90
2018-04-19T20:01:51.866Z,99.90
2018-04-19T20:04:18.453Z,99.90
2018-04-19T20:06:44.932Z,99.90
2018-04-19T20:09:12.190Z,99.90
2018-04-19T20:11:38.695Z,99.90
2018-04-19T20:14:05.128Z,99.90
2018-04-19T20:16:31.626Z,99.90
2018-04-19T20:18:58.077Z,99.90
2018-04-19T20:21:24.566Z,99.90
2018-04-19T20:23:51.197Z,99.90
2018-04-19T20:26:17.792Z,99.90
2018-04-19T20:28:44.221Z,99.90
2018-04-19T20:31:10.779Z,99.90
2018-04-19T20:33:38.000Z,99.90
2018-04-19T20:36:04.487Z,99.90
2018-04-19T20:38:30.919Z,99.90
2018-04-19T20:40:57.453Z,99.90
2018-04-19T20:43:24.349Z,99.90
2018-04-19T20:45:51.561Z,99.90
2018-04-19T20:48:19.397Z,99.90
2018-04-19T20:50:46.785Z,99.90
2018-04-19T20:53:13.224Z,99.90
2018-04-19T20:55:39.736Z,99.90
2018-04-19T20:58:06.298Z,99.90
2018-04-19T21:00:32.761Z,99.90
2018-04-19T21:03:00.661Z,99.90
2018-04-19T21:05:27.207Z,99.90
2018-04-19T21:07:53.820Z,99.90
2018-04-19T21:10:21.151Z,99.90
2018-04-19T21:12:47.600Z,99.90
2018-04-19T21:15:14.925Z,99.90
2018-04-19T21:17:41.440Z,99.90
2018-04-19T21:20:07.929Z,99.90
2018-04-19T21:22:35.088Z,99.90
2018-04-19T21:25:01.705Z,99.90
2018-04-19T21:27:28.893Z,99.90
2018-04-19T21:29:55.406Z,99.90
2018-04-19T21:32:21.853Z,99.90
2018-04-19T21:34:48.400Z,99.90
2018-04-19T21:37:15.109Z,99.90
2018-04-19T21:39:41.593Z,99.90
2018-04-19T21:42:08.066Z,99.90
2018-04-19T21:44:35.289Z,99.90
2018-04-19T21:47:08.773Z,99.90
2018-04-19T21:49:35.266Z,99.90
2018-04-19T21:52:02.538Z,99.90
2018-04-19T21:54:29.212Z,99.90
2018-04-19T21:56:55.640Z,99.90
2018-04-19T21:59:22.238Z,99.90
2018-04-19T22:01:48.669Z,99.90
2018-04-19T22:04:15.112Z,99.90
2018-04-19T22:06:41.604Z,99.90
2018-04-19T22:09:08.766Z,99.90
2018-04-19T22:11:35.317Z,99.90
2018-04-19T22:14:01.779Z,99.90
2018-04-19T22:16:28.204Z,99.90
2018-04-19T22:18:54.648Z,99.90
2018-04-19T22:21:21.162Z,99.90
2018-04-19T22:23:47.537Z,99.90
2018-04-19T22:26:14.788Z,99.90
2018-04-19T22:28:42.022Z,99.90
2018-04-19T22:31:08.520Z,99.90
2018-04-19T22:33:34.976Z,99.90
2018-04-19T22:36:01.419Z,99.90
2018-04-19T22:38:27.815Z,99.90
2018-04-19T22:40:54.207Z,99.90
2018-04-19T22:43:21.395Z,99.90
2018-04-19T22:45:47.848Z,99.90
2018-04-19T22:48:14.315Z,99.90
2018-04-19T22:50:40.763Z,99.90
2018-04-19T22:53:08.050Z,99.90
2018-04-19T22:55:34.519Z,99.90
2018-04-19T22:58:00.990Z,99.90
2018-04-19T23:00:28.269Z,99.90
2018-04-19T23:02:54.743Z,99.90
2018-04-19T23:05:21.199Z,99.90
2018-04-19T23:07:48.381Z,99.90
2018-04-19T23:10:14.805Z,99.90
2018-04-19T23:12:41.259Z,99.90
2018-04-19T23:15:07.657Z,99.90
2018-04-19T23:17:34.921Z,99.90
2018-04-19T23:20:01.365Z,99.90
2018-04-19T23:22:33.790Z,99.90
2018-04-19T23:25:00.963Z,99.90
2018-04-19T23:27:28.099Z,99.90
2018-04-19T23:29:55.285Z,99.90
2018-04-19T23:32:21.721Z,99.90
2018-04-19T23:34:48.164Z,99.90
2018-04-19T23:37:14.576Z,99.90
2018-04-19T23:39:41.039Z,99.90
2018-04-19T23:42:07.480Z,99.90
2018-04-19T23:44:33.915Z,99.90
2018-04-19T23:47:00.295Z,99.90
2018-04-19T23:49:26.784Z,99.90
2018-04-19T23:51:53.273Z,99.90
2018-04-19T23:54:19.682Z,99.90
2018-04-19T23:56:46.835Z,99.90
2018-04-19T23:59:13.991Z,99.90
